Terminal Aerodrome Forecast
Issued by NWS Springfield, MO

Home | Current Version | Previous Version | Text Only | Print | Product List | Glossary On
Versions: 1 2 3 4 5 6 7 8 9 10 11 12 13 14 15 16 17 18 19 20
000
FTUS43 KSGF 220509 AAA
TAFSGF
TAF AMD
KSGF 220509Z 2205/2224 19015G25KT 6SM -TSRA BKN025CB OVC050
      WS020/18045KT
      TEMPO 2205/2208 30025G35KT 2SM +TSRA BR OVC020CB
     FM220900 32013KT 5SM SHRA BR VCTS OVC010CB
     FM221100 32013KT P6SM OVC008
     FM221500 33013G21KT P6SM BKN015
     FM221700 34012G22KT P6SM SCT040=

USA.gov is the U.S. government's official web portal to all federal, state and local government web resources and services.